createdAt,value
2022-12-22T00:00:29.113Z,62.70
2022-12-22T00:01:29.193Z,47.78
2022-12-22T00:02:29.281Z,56.75
2022-12-22T00:03:29.130Z,48.88
2022-12-22T00:04:29.093Z,59.23
2022-12-22T00:05:29.066Z,54.44
2022-12-22T00:06:29.060Z,61.41
2022-12-22T00:07:29.080Z,46.04
2022-12-22T00:08:29.050Z,48.32
2022-12-22T00:09:29.061Z,51.67
2022-12-22T00:10:29.036Z,51.94
2022-12-22T00:11:29.040Z,49.65
2022-12-22T00:12:29.061Z,37.97
2022-12-22T00:13:29.009Z,41.25
2022-12-22T00:14:29.010Z,56.12
2022-12-22T00:15:28.984Z,54.10
2022-12-22T00:16:29.022Z,51.78
2022-12-22T00:17:28.976Z,53.41
2022-12-22T00:18:28.996Z,44.53
2022-12-22T00:19:28.960Z,51.74
2022-12-22T00:20:28.949Z,46.69
2022-12-22T00:21:28.937Z,46.24
2022-12-22T00:22:28.933Z,50.55
2022-12-22T00:23:28.944Z,43.27
2022-12-22T00:24:28.927Z,53.68
2022-12-22T00:25:28.909Z,58.10
2022-12-22T00:26:28.900Z,64.02
2022-12-22T00:27:28.891Z,50.58
2022-12-22T00:28:28.908Z,57.88
2022-12-22T00:29:28.874Z,61.95
2022-12-22T00:30:28.938Z,60.76
2022-12-22T00:31:28.907Z,67.48
2022-12-22T00:32:28.849Z,52.10
2022-12-22T00:33:28.866Z,47.44
2022-12-22T00:34:32.458Z,50.11
2022-12-22T00:35:29.826Z,55.76
2022-12-22T00:36:28.837Z,45.85
2022-12-22T00:37:28.810Z,52.60
2022-12-22T00:38:28.822Z,59.57
2022-12-22T00:39:29.802Z,54.02
2022-12-22T00:40:28.785Z,55.29
2022-12-22T00:41:28.780Z,53.05
2022-12-22T00:42:28.772Z,61.87
2022-12-22T00:43:28.789Z,56.46
2022-12-22T00:44:28.765Z,52.39
2022-12-22T00:45:28.769Z,57.61
2022-12-22T00:46:28.798Z,52.23
2022-12-22T00:47:28.737Z,47.97
2022-12-22T00:48:28.756Z,38.91
2022-12-22T00:49:28.727Z,41.21
2022-12-22T00:50:28.711Z,52.51
2022-12-22T00:51:28.710Z,54.70
2022-12-22T00:52:28.699Z,47.59
2022-12-22T00:53:28.726Z,43.12
2022-12-22T00:54:28.681Z,42.00
2022-12-22T00:55:28.672Z,38.82
2022-12-22T00:56:28.664Z,38.46
2022-12-22T00:57:28.650Z,49.62
2022-12-22T00:58:28.675Z,47.89
2022-12-22T00:59:28.647Z,50.77
2022-12-22T01:00:28.630Z,44.54
2022-12-22T01:01:28.669Z,46.75
2022-12-22T01:02:28.822Z,50.92
2022-12-22T01:03:28.672Z,50.27
2022-12-22T01:04:29.602Z,49.01
2022-12-22T01:05:28.592Z,41.80
2022-12-22T01:06:28.584Z,50.60
2022-12-22T01:07:28.573Z,45.12
2022-12-22T01:08:28.596Z,53.67
2022-12-22T01:09:28.561Z,53.44
2022-12-22T01:10:28.554Z,52.04
2022-12-22T01:11:28.543Z,42.02
2022-12-22T01:12:28.535Z,51.34
2022-12-22T01:13:28.528Z,54.63
2022-12-22T01:14:28.544Z,47.15
2022-12-22T01:15:28.512Z,59.25
2022-12-22T01:16:28.527Z,52.91
2022-12-22T01:17:28.509Z,56.51
2022-12-22T01:18:28.487Z,50.89
2022-12-22T01:19:28.495Z,58.25
2022-12-22T01:20:29.473Z,62.84
2022-12-22T01:21:28.468Z,51.93
2022-12-22T01:22:28.460Z,51.28
2022-12-22T01:23:28.445Z,51.79
2022-12-22T01:24:28.471Z,49.65
2022-12-22T01:25:28.427Z,54.95
2022-12-22T01:26:29.449Z,53.60
2022-12-22T01:27:28.437Z,54.54
2022-12-22T01:28:28.432Z,61.20
2022-12-22T01:29:28.428Z,55.00
2022-12-22T01:30:28.434Z,57.66
2022-12-22T01:31:28.446Z,57.44
2022-12-22T01:32:28.382Z,50.59
2022-12-22T01:33:28.373Z,45.76
2022-12-22T01:34:28.390Z,39.79
2022-12-22T01:35:28.358Z,39.66
2022-12-22T01:36:28.355Z,45.90
2022-12-22T01:37:28.346Z,49.87
2022-12-22T01:38:28.335Z,62.84
2022-12-22T01:39:28.359Z,60.06
2022-12-22T01:40:28.318Z,45.01
2022-12-22T01:41:28.311Z,46.88
2022-12-22T01:42:28.303Z,46.25
2022-12-22T01:43:28.299Z,58.28
2022-12-22T01:44:28.313Z,52.88
2022-12-22T01:45:28.288Z,51.08
2022-12-22T01:46:28.320Z,47.24
2022-12-22T01:47:28.259Z,45.14
2022-12-22T01:48:28.256Z,44.93
2022-12-22T01:49:28.294Z,56.59
2022-12-22T01:50:28.237Z,40.83
2022-12-22T01:51:28.232Z,49.95
2022-12-22T01:52:28.234Z,39.10
2022-12-22T01:53:28.233Z,52.65
2022-12-22T01:54:28.232Z,62.98
2022-12-22T01:55:28.202Z,49.99
2022-12-22T01:56:28.193Z,52.07
2022-12-22T01:57:28.198Z,58.59
2022-12-22T01:58:28.175Z,46.19
2022-12-22T01:59:28.258Z,51.36
2022-12-22T02:00:28.161Z,63.64
2022-12-22T02:01:28.246Z,43.13
2022-12-22T02:02:28.222Z,39.26
2022-12-22T02:03:28.170Z,47.60
2022-12-22T02:04:28.129Z,45.39
2022-12-22T02:05:28.145Z,50.34
2022-12-22T02:06:28.109Z,39.33
2022-12-22T02:07:28.104Z,44.03
2022-12-22T02:08:28.101Z,58.29
2022-12-22T02:09:28.089Z,61.06
2022-12-22T02:10:28.106Z,49.22
2022-12-22T02:11:28.080Z,54.53
2022-12-22T02:12:28.052Z,57.78
2022-12-22T02:13:29.055Z,60.09
2022-12-22T02:14:30.386Z,46.81
2022-12-22T02:15:29.067Z,49.80
2022-12-22T02:16:28.079Z,56.57
2022-12-22T02:17:28.018Z,42.43
2022-12-22T02:18:28.011Z,45.93
2022-12-22T02:19:28.003Z,40.13
2022-12-22T02:20:28.026Z,52.61
2022-12-22T02:21:27.992Z,58.75
2022-12-22T02:22:27.988Z,55.74
2022-12-22T02:23:27.974Z,51.86
2022-12-22T02:24:27.974Z,57.80
2022-12-22T02:25:27.983Z,55.26
2022-12-22T02:26:27.950Z,51.46
2022-12-22T02:27:27.944Z,53.66
2022-12-22T02:28:27.930Z,54.27
2022-12-22T02:29:27.933Z,52.77
2022-12-22T02:30:27.944Z,58.22
2022-12-22T02:31:27.935Z,56.97
2022-12-22T02:32:27.913Z,53.89
2022-12-22T02:33:27.902Z,50.08
2022-12-22T02:34:27.887Z,54.39
2022-12-22T02:35:27.902Z,53.41
2022-12-22T02:36:27.868Z,46.37
2022-12-22T02:37:27.865Z,59.23
2022-12-22T02:38:27.857Z,50.46
2022-12-22T02:39:27.855Z,47.12
2022-12-22T02:40:27.862Z,51.46
2022-12-22T02:41:27.832Z,51.15
2022-12-22T02:42:27.821Z,50.75
2022-12-22T02:43:27.813Z,52.36
2022-12-22T02:44:27.805Z,56.12
2022-12-22T02:45:27.835Z,56.26
2022-12-22T02:46:27.860Z,53.67
2022-12-22T02:47:27.784Z,49.27
2022-12-22T02:48:27.774Z,60.57
2022-12-22T02:49:27.768Z,53.03
2022-12-22T02:50:27.793Z,51.95
2022-12-22T02:51:27.754Z,53.15
2022-12-22T02:52:27.744Z,49.88
2022-12-22T02:53:27.734Z,47.35
2022-12-22T02:54:27.743Z,49.22
2022-12-22T02:55:27.727Z,40.50
2022-12-22T02:56:27.738Z,52.79
2022-12-22T02:57:27.711Z,53.90
2022-12-22T02:58:27.697Z,54.72
2022-12-22T02:59:27.690Z,49.08
2022-12-22T03:00:27.687Z,41.56
2022-12-22T03:01:27.762Z,54.92
2022-12-22T03:02:27.896Z,43.27
2022-12-22T03:03:27.858Z,54.72
2022-12-22T03:04:27.653Z,51.95
2022-12-22T03:05:27.637Z,54.74
2022-12-22T03:06:27.658Z,53.32
2022-12-22T03:07:27.627Z,45.58
2022-12-22T03:08:27.618Z,43.28
2022-12-22T03:09:27.617Z,46.57
2022-12-22T03:10:27.600Z,61.64
2022-12-22T03:11:27.620Z,51.73
2022-12-22T03:12:27.630Z,45.87
2022-12-22T03:13:27.582Z,53.54
2022-12-22T03:14:27.572Z,55.47
2022-12-22T03:15:27.564Z,48.91
2022-12-22T03:16:27.637Z,52.12
2022-12-22T03:17:27.549Z,51.11
2022-12-22T03:18:27.539Z,54.82
2022-12-22T03:19:27.541Z,48.04
2022-12-22T03:20:27.524Z,55.80
2022-12-22T03:21:27.541Z,49.87
2022-12-22T03:22:27.506Z,51.53
2022-12-22T03:23:27.503Z,57.40
2022-12-22T03:24:27.492Z,47.25
2022-12-22T03:25:27.483Z,49.74
2022-12-22T03:26:27.503Z,46.94
2022-12-22T03:27:27.476Z,50.30
2022-12-22T03:28:27.479Z,53.71
2022-12-22T03:29:27.452Z,47.67
2022-12-22T03:30:27.447Z,56.78
2022-12-22T03:31:27.490Z,49.25
2022-12-22T03:32:27.438Z,54.77
2022-12-22T03:33:27.423Z,55.58
2022-12-22T03:34:27.418Z,51.14
2022-12-22T03:35:27.406Z,52.70
2022-12-22T03:36:27.424Z,48.77
2022-12-22T03:37:27.412Z,56.33
2022-12-22T03:38:27.392Z,59.95
2022-12-22T03:39:27.383Z,56.29
2022-12-22T03:40:27.368Z,56.23
2022-12-22T03:41:27.384Z,56.85
2022-12-22T03:42:27.350Z,46.42
2022-12-22T03:43:27.343Z,46.60
2022-12-22T03:44:27.334Z,52.40
2022-12-22T03:45:27.328Z,56.95
2022-12-22T03:46:27.363Z,56.53
2022-12-22T03:47:27.311Z,57.84
2022-12-22T03:48:27.307Z,51.96
2022-12-22T03:49:27.300Z,63.08
2022-12-22T03:50:27.296Z,57.76
2022-12-22T03:51:27.303Z,62.36
2022-12-22T03:52:27.275Z,52.55
2022-12-22T03:53:27.280Z,43.05
2022-12-22T03:54:27.259Z,46.27
2022-12-22T03:55:27.247Z,55.38
2022-12-22T03:56:27.284Z,60.64
2022-12-22T03:57:27.244Z,61.10
2022-12-22T03:58:27.230Z,53.04
2022-12-22T03:59:27.220Z,48.62
2022-12-22T04:00:27.211Z,54.61
2022-12-22T04:01:27.428Z,55.06
2022-12-22T04:02:27.320Z,53.76
2022-12-22T04:03:27.330Z,62.56
2022-12-22T04:04:27.183Z,51.65
2022-12-22T04:05:27.178Z,52.45
2022-12-22T04:06:27.163Z,49.90
2022-12-22T04:07:27.179Z,54.01
2022-12-22T04:08:27.158Z,59.66
2022-12-22T04:09:27.186Z,55.98
2022-12-22T04:10:27.134Z,54.89
2022-12-22T04:11:27.127Z,52.82
2022-12-22T04:12:27.142Z,57.91
2022-12-22T04:13:27.105Z,48.91
2022-12-22T04:14:33.470Z,63.33
2022-12-22T04:15:29.097Z,52.81
2022-12-22T04:16:27.139Z,56.34
2022-12-22T04:17:27.101Z,57.32
2022-12-22T04:18:27.072Z,49.47
2022-12-22T04:19:27.061Z,59.90
2022-12-22T04:20:27.054Z,51.38
2022-12-22T04:21:27.044Z,51.45
2022-12-22T04:22:27.064Z,55.92
2022-12-22T04:23:27.034Z,55.78
2022-12-22T04:24:27.028Z,57.28
2022-12-22T04:25:27.060Z,58.15
2022-12-22T04:26:27.004Z,57.96
2022-12-22T04:27:27.034Z,56.56
2022-12-22T04:28:27.001Z,58.89
2022-12-22T04:29:26.991Z,56.78
2022-12-22T04:30:26.973Z,60.01
2022-12-22T04:31:26.980Z,60.07
2022-12-22T04:32:26.989Z,61.43
2022-12-22T04:33:26.950Z,59.93
2022-12-22T04:34:26.942Z,55.68
2022-12-22T04:35:26.938Z,57.99
2022-12-22T04:36:26.933Z,60.47
2022-12-22T04:37:26.932Z,56.24
2022-12-22T04:38:27.909Z,60.94
2022-12-22T04:39:26.903Z,59.13
2022-12-22T04:40:26.900Z,56.15
2022-12-22T04:41:26.888Z,55.55
2022-12-22T04:42:26.903Z,56.79
2022-12-22T04:43:26.873Z,56.29
2022-12-22T04:44:26.879Z,57.98
2022-12-22T04:45:27.001Z,57.52
2022-12-22T04:46:26.949Z,53.91
2022-12-22T04:47:26.864Z,58.72
2022-12-22T04:48:26.833Z,59.19
2022-12-22T04:49:26.835Z,54.16
2022-12-22T04:50:26.819Z,56.35
2022-12-22T04:51:26.807Z,60.40
2022-12-22T04:52:26.828Z,55.92
2022-12-22T04:53:26.797Z,57.08
2022-12-22T04:54:26.782Z,53.84
2022-12-22T04:55:26.776Z,57.95
2022-12-22T04:56:26.772Z,56.29
2022-12-22T04:57:26.785Z,59.52
2022-12-22T04:58:26.751Z,59.34
2022-12-22T04:59:26.750Z,57.38
2022-12-22T05:00:26.736Z,59.04
2022-12-22T05:01:26.857Z,55.06
2022-12-22T05:02:26.805Z,59.74
2022-12-22T05:03:26.762Z,54.67
2022-12-22T05:04:26.710Z,57.22
2022-12-22T05:05:26.703Z,54.71
2022-12-22T05:06:26.697Z,57.67
2022-12-22T05:07:26.711Z,57.29
2022-12-22T05:08:26.675Z,57.93
2022-12-22T05:09:26.663Z,58.60
2022-12-22T05:10:26.657Z,63.26
2022-12-22T05:11:26.651Z,56.57
2022-12-22T05:12:26.666Z,61.81
2022-12-22T05:13:26.650Z,59.72
2022-12-22T05:14:26.633Z,61.49
2022-12-22T05:15:26.626Z,60.01
2022-12-22T05:16:26.642Z,60.93
2022-12-22T05:17:26.624Z,62.33
2022-12-22T05:18:26.595Z,63.89
2022-12-22T05:19:30.673Z,63.40
2022-12-22T05:20:27.666Z,61.48
2022-12-22T05:21:26.574Z,60.66
2022-12-22T05:22:26.591Z,60.33
2022-12-22T05:23:26.559Z,59.79
2022-12-22T05:24:26.549Z,62.91
2022-12-22T05:25:29.885Z,60.24
2022-12-22T05:26:27.539Z,56.86
2022-12-22T05:27:26.560Z,62.79
2022-12-22T05:28:26.517Z,59.40
2022-12-22T05:29:26.513Z,59.98
2022-12-22T05:30:26.596Z,60.95
2022-12-22T05:31:26.604Z,61.37
2022-12-22T05:32:26.514Z,60.25
2022-12-22T05:33:26.479Z,59.79
2022-12-22T05:34:26.469Z,63.58
2022-12-22T05:35:26.463Z,59.41
2022-12-22T05:36:26.460Z,59.35
2022-12-22T05:37:26.446Z,60.75
2022-12-22T05:38:26.461Z,63.52
2022-12-22T05:39:26.429Z,62.62
2022-12-22T05:40:26.418Z,61.58
2022-12-22T05:41:26.423Z,60.27
2022-12-22T05:42:26.404Z,60.42
2022-12-22T05:43:26.423Z,64.19
2022-12-22T05:44:26.387Z,61.25
2022-12-22T05:45:26.398Z,64.50
2022-12-22T05:46:26.417Z,61.90
2022-12-22T05:47:27.365Z,63.66
2022-12-22T05:48:32.172Z,64.04
2022-12-22T05:49:28.355Z,61.43
2022-12-22T05:50:26.341Z,60.30
2022-12-22T05:51:26.332Z,62.86
2022-12-22T05:52:26.328Z,61.26
2022-12-22T05:53:26.354Z,62.54
2022-12-22T05:54:26.316Z,60.88
2022-12-22T05:55:26.308Z,60.74
2022-12-22T05:56:26.295Z,64.03
2022-12-22T05:57:26.284Z,61.06
2022-12-22T05:58:26.309Z,62.81
2022-12-22T05:59:26.285Z,59.73
2022-12-22T06:00:26.266Z,60.06
2022-12-22T06:01:26.305Z,62.32
2022-12-22T06:02:26.389Z,58.32
2022-12-22T06:03:26.405Z,55.15
2022-12-22T06:04:26.331Z,59.48
2022-12-22T06:05:26.218Z,59.63
2022-12-22T06:06:26.230Z,61.38
2022-12-22T06:07:26.210Z,63.35
2022-12-22T06:08:26.222Z,61.08
2022-12-22T06:09:26.187Z,61.40
2022-12-22T06:10:26.181Z,62.47
2022-12-22T06:11:26.173Z,58.99
2022-12-22T06:12:26.167Z,61.32
2022-12-22T06:13:26.187Z,62.98
2022-12-22T06:14:26.144Z,61.48
2022-12-22T06:15:26.146Z,63.71
2022-12-22T06:16:26.235Z,62.09
2022-12-22T06:17:26.125Z,64.65
2022-12-22T06:18:26.149Z,63.79
2022-12-22T06:19:26.107Z,62.19
2022-12-22T06:20:26.101Z,62.29
2022-12-22T06:21:26.091Z,62.23
2022-12-22T06:22:26.092Z,60.41
2022-12-22T06:23:26.107Z,61.23
2022-12-22T06:24:26.070Z,59.14
2022-12-22T06:25:26.062Z,60.55
2022-12-22T06:26:26.049Z,58.12
2022-12-22T06:27:26.045Z,60.77
2022-12-22T06:28:26.073Z,61.80
2022-12-22T06:29:26.033Z,64.63
2022-12-22T06:30:32.953Z,63.94
2022-12-22T06:31:28.039Z,61.07
2022-12-22T06:32:26.021Z,53.86
2022-12-22T06:33:26.023Z,62.62
2022-12-22T06:34:25.993Z,62.59
2022-12-22T06:35:25.988Z,59.88
2022-12-22T06:36:25.982Z,60.95
2022-12-22T06:37:25.984Z,59.15
2022-12-22T06:38:25.986Z,62.51
2022-12-22T06:39:25.978Z,58.90
2022-12-22T06:40:25.957Z,60.00
2022-12-22T06:41:25.938Z,60.22
2022-12-22T06:42:25.939Z,61.95
2022-12-22T06:43:25.993Z,59.30
2022-12-22T06:44:25.913Z,58.38
2022-12-22T06:45:25.911Z,62.21
2022-12-22T06:46:25.950Z,60.92
2022-12-22T06:47:25.889Z,63.29
2022-12-22T06:48:25.910Z,52.96
2022-12-22T06:49:25.884Z,59.20
2022-12-22T06:50:25.872Z,62.54
2022-12-22T06:51:25.865Z,57.14
2022-12-22T06:52:25.845Z,61.31
2022-12-22T06:53:26.877Z,58.22
2022-12-22T06:54:26.455Z,58.00
2022-12-22T06:55:26.846Z,58.99
2022-12-22T06:56:25.822Z,59.14
2022-12-22T06:57:25.812Z,54.71
2022-12-22T06:58:25.836Z,59.53
2022-12-22T06:59:25.802Z,57.08
2022-12-22T07:00:25.815Z,56.59
2022-12-22T07:01:25.848Z,61.02
2022-12-22T07:02:26.052Z,51.89
2022-12-22T07:03:25.923Z,56.94
2022-12-22T07:04:25.785Z,59.34
2022-12-22T07:05:25.796Z,59.46
2022-12-22T07:06:25.746Z,61.29
2022-12-22T07:07:25.735Z,63.21
2022-12-22T07:08:25.725Z,60.43
2022-12-22T07:09:25.741Z,56.58
2022-12-22T07:10:25.747Z,55.68
2022-12-22T07:11:25.701Z,56.85
2022-12-22T07:12:25.696Z,58.65
2022-12-22T07:13:25.686Z,53.20
2022-12-22T07:14:26.703Z,62.03
2022-12-22T07:15:25.668Z,63.61
2022-12-22T07:16:25.724Z,62.84
2022-12-22T07:17:25.659Z,59.49
2022-12-22T07:18:25.656Z,56.94
2022-12-22T07:19:25.662Z,61.37
2022-12-22T07:20:25.632Z,59.48
2022-12-22T07:21:25.621Z,60.77
2022-12-22T07:22:29.796Z,57.48
2022-12-22T07:23:26.633Z,58.23
2022-12-22T07:24:25.627Z,62.27
2022-12-22T07:25:25.598Z,62.55
2022-12-22T07:26:25.614Z,56.47
2022-12-22T07:27:25.588Z,62.21
2022-12-22T07:28:25.593Z,59.74
2022-12-22T07:29:25.605Z,63.89
2022-12-22T07:30:25.560Z,61.31
2022-12-22T07:31:25.588Z,62.81
2022-12-22T07:32:25.542Z,63.32
2022-12-22T07:33:25.536Z,59.19
2022-12-22T07:34:25.544Z,60.43
2022-12-22T07:35:25.517Z,63.17
2022-12-22T07:36:25.511Z,63.68
2022-12-22T07:37:25.504Z,61.82
2022-12-22T07:38:25.493Z,61.88
2022-12-22T07:39:25.505Z,60.95
2022-12-22T07:40:25.475Z,63.57
2022-12-22T07:41:25.470Z,62.73
2022-12-22T07:42:25.465Z,63.59
2022-12-22T07:43:25.451Z,61.39
2022-12-22T07:44:25.477Z,61.58
2022-12-22T07:45:25.433Z,63.51
2022-12-22T07:46:25.469Z,62.81
2022-12-22T07:47:28.595Z,63.28
2022-12-22T07:48:27.425Z,64.75
2022-12-22T07:49:25.727Z,63.70
2022-12-22T07:50:25.391Z,64.19
2022-12-22T07:51:25.391Z,63.05
2022-12-22T07:52:25.381Z,63.87
2022-12-22T07:53:25.371Z,62.74
2022-12-22T07:54:25.394Z,61.99
2022-12-22T07:55:25.361Z,62.73
2022-12-22T07:56:25.352Z,59.16
2022-12-22T07:57:25.347Z,62.71
2022-12-22T07:58:25.349Z,60.69
2022-12-22T07:59:25.347Z,62.61
2022-12-22T08:00:25.402Z,62.52
2022-12-22T08:01:25.415Z,62.07
2022-12-22T08:02:25.400Z,62.44
2022-12-22T08:03:25.363Z,59.52
2022-12-22T08:04:25.397Z,62.44
2022-12-22T08:05:25.306Z,61.20
2022-12-22T08:06:25.270Z,59.45
2022-12-22T08:07:25.306Z,62.44
2022-12-22T08:08:25.267Z,61.76
2022-12-22T08:09:25.274Z,61.16
2022-12-22T08:10:25.278Z,61.02
2022-12-22T08:11:25.236Z,59.23
2022-12-22T08:12:25.228Z,57.99
2022-12-22T08:13:25.315Z,54.18
2022-12-22T08:14:25.218Z,60.01
2022-12-22T08:15:25.236Z,61.08
2022-12-22T08:16:25.238Z,61.00
2022-12-22T08:17:25.199Z,58.34
2022-12-22T08:18:25.176Z,64.00
2022-12-22T08:19:25.168Z,62.89
2022-12-22T08:20:25.215Z,59.97
2022-12-22T08:21:25.161Z,60.18
2022-12-22T08:22:25.153Z,58.19
2022-12-22T08:23:25.156Z,60.45
2022-12-22T08:24:25.131Z,60.20
2022-12-22T08:25:25.146Z,61.00
2022-12-22T08:26:25.124Z,59.32
2022-12-22T08:27:26.382Z,61.57
2022-12-22T08:28:26.101Z,60.09
2022-12-22T08:29:25.094Z,61.64
2022-12-22T08:30:25.170Z,62.47
2022-12-22T08:31:25.130Z,61.98
2022-12-22T08:32:25.078Z,57.95
2022-12-22T08:33:25.064Z,60.85
2022-12-22T08:34:25.060Z,60.17
2022-12-22T08:35:25.071Z,61.82
2022-12-22T08:36:25.040Z,62.29
2022-12-22T08:37:25.039Z,57.54
2022-12-22T08:38:25.026Z,62.90
2022-12-22T08:39:25.042Z,61.79
2022-12-22T08:40:25.102Z,62.72
2022-12-22T08:41:25.001Z,58.57
2022-12-22T08:42:25.010Z,59.28
2022-12-22T08:43:24.982Z,56.73
2022-12-22T08:44:25.004Z,59.77
2022-12-22T08:45:24.993Z,61.14
2022-12-22T08:46:25.004Z,58.38
2022-12-22T08:47:25.002Z,60.83
2022-12-22T08:48:24.942Z,58.40
2022-12-22T08:49:24.929Z,60.22
2022-12-22T08:50:24.963Z,62.63
2022-12-22T08:51:24.920Z,62.06
2022-12-22T08:52:24.912Z,60.87
2022-12-22T08:54:03.410Z,60.76
2022-12-22T08:54:26.901Z,59.81
2022-12-22T08:55:24.925Z,58.07
2022-12-22T08:56:24.885Z,58.14
2022-12-22T08:57:24.873Z,61.41
2022-12-22T08:58:24.874Z,61.10
2022-12-22T08:59:24.856Z,60.75
2022-12-22T09:00:24.879Z,58.25
2022-12-22T09:01:24.895Z,60.99
2022-12-22T09:02:24.964Z,59.76
2022-12-22T09:03:24.905Z,57.97
2022-12-22T09:04:24.821Z,59.63
2022-12-22T09:05:24.820Z,58.32
2022-12-22T09:06:27.572Z,58.13
2022-12-22T09:07:25.798Z,60.13
2022-12-22T09:08:24.790Z,62.03
2022-12-22T09:09:24.769Z,58.05
2022-12-22T09:10:25.819Z,58.62
2022-12-22T09:11:24.780Z,60.67
2022-12-22T09:12:24.762Z,61.45
2022-12-22T09:13:24.761Z,61.51
2022-12-22T09:14:24.743Z,57.55
2022-12-22T09:15:24.738Z,58.20
2022-12-22T09:16:24.822Z,60.81
2022-12-22T09:17:24.720Z,62.21
2022-12-22T09:18:24.712Z,57.08
2022-12-22T09:19:24.710Z,58.35
2022-12-22T09:20:24.694Z,63.10
2022-12-22T09:21:24.718Z,61.51
2022-12-22T09:22:28.419Z,58.72
2022-12-22T09:23:25.690Z,58.80
2022-12-22T09:24:24.682Z,61.88
2022-12-22T09:25:24.659Z,63.80
2022-12-22T09:26:24.678Z,60.23
2022-12-22T09:27:24.644Z,56.99
2022-12-22T09:28:24.645Z,60.06
2022-12-22T09:29:24.638Z,60.07
2022-12-22T09:30:24.628Z,65.20
2022-12-22T09:31:24.691Z,59.65
2022-12-22T09:32:24.605Z,61.98
2022-12-22T09:33:24.603Z,58.84
2022-12-22T09:34:24.596Z,62.95
2022-12-22T09:35:24.584Z,63.94
2022-12-22T09:36:24.604Z,54.23
2022-12-22T09:37:24.570Z,62.34
2022-12-22T09:38:24.558Z,60.94
2022-12-22T09:39:28.797Z,63.29
2022-12-22T09:40:26.539Z,60.95
2022-12-22T09:41:24.559Z,58.78
2022-12-22T09:42:24.523Z,57.66
2022-12-22T09:43:24.521Z,59.43
2022-12-22T09:44:24.526Z,61.74
2022-12-22T09:45:24.502Z,62.53
2022-12-22T09:46:24.599Z,61.01
2022-12-22T09:47:24.536Z,59.73
2022-12-22T09:48:24.481Z,61.10
2022-12-22T09:49:24.474Z,58.41
2022-12-22T09:50:24.494Z,60.24
2022-12-22T09:51:27.218Z,60.41
2022-12-22T09:52:25.447Z,59.33
2022-12-22T09:53:24.444Z,60.39
2022-12-22T09:54:24.439Z,63.08
2022-12-22T09:55:24.425Z,62.20
2022-12-22T09:56:24.446Z,58.99
2022-12-22T09:57:24.503Z,58.56
2022-12-22T09:58:26.687Z,57.94
2022-12-22T09:59:25.389Z,57.41
2022-12-22T10:00:24.394Z,59.12
2022-12-22T10:01:24.540Z,62.26
2022-12-22T10:02:24.441Z,62.83
2022-12-22T10:03:24.452Z,59.62
2022-12-22T10:04:24.362Z,60.20
2022-12-22T10:05:24.360Z,58.09
2022-12-22T10:06:24.380Z,58.11
2022-12-22T10:07:24.353Z,59.75
2022-12-22T10:08:24.331Z,56.11
2022-12-22T10:09:51.995Z,58.15
2022-12-22T10:10:26.301Z,59.11
2022-12-22T10:11:24.333Z,62.53
2022-12-22T10:12:24.301Z,60.48
2022-12-22T10:13:24.293Z,61.39
2022-12-22T10:14:24.277Z,55.73
2022-12-22T10:15:24.274Z,58.73
2022-12-22T10:16:24.341Z,59.96
2022-12-22T10:17:24.421Z,59.95
2022-12-22T10:18:24.245Z,59.16
2022-12-22T10:19:24.233Z,57.58
2022-12-22T10:20:24.230Z,58.25
2022-12-22T10:21:24.253Z,58.34
2022-12-22T10:22:24.214Z,58.75
2022-12-22T10:23:24.202Z,56.96
2022-12-22T10:24:24.193Z,57.13
2022-12-22T10:25:24.191Z,60.37
2022-12-22T10:26:29.205Z,58.32
2022-12-22T10:27:29.248Z,55.32
2022-12-22T10:28:25.159Z,57.89
2022-12-22T10:29:24.152Z,59.96
2022-12-22T10:30:24.155Z,56.41
2022-12-22T10:31:24.183Z,57.90
2022-12-22T10:32:24.212Z,58.76
2022-12-22T10:33:24.120Z,57.90
2022-12-22T10:34:24.117Z,55.59
2022-12-22T10:35:24.101Z,58.41
2022-12-22T10:36:24.113Z,57.92
2022-12-22T10:37:24.115Z,55.44
2022-12-22T10:38:24.076Z,58.34
2022-12-22T10:39:24.082Z,58.44
2022-12-22T10:40:24.062Z,62.02
2022-12-22T10:41:24.068Z,59.85
2022-12-22T10:42:24.080Z,56.47
2022-12-22T10:43:24.036Z,60.40
2022-12-22T10:44:24.037Z,59.22
2022-12-22T10:45:24.029Z,58.22
2022-12-22T10:46:24.063Z,56.25
2022-12-22T10:47:24.486Z,59.53
2022-12-22T10:48:23.996Z,56.28
2022-12-22T10:49:23.999Z,57.01
2022-12-22T10:50:23.985Z,61.87
2022-12-22T10:51:23.987Z,58.27
2022-12-22T10:52:29.597Z,56.67
2022-12-22T10:53:25.955Z,59.10
2022-12-22T10:54:23.956Z,60.51
2022-12-22T10:55:23.949Z,58.82
2022-12-22T10:56:24.007Z,56.98
2022-12-22T10:57:23.951Z,62.15
2022-12-22T10:58:23.923Z,60.34
2022-12-22T10:59:23.912Z,57.23
2022-12-22T11:00:23.920Z,62.99
2022-12-22T11:01:23.989Z,61.62
2022-12-22T11:02:24.130Z,61.34
2022-12-22T11:03:24.755Z,56.75
2022-12-22T11:04:24.894Z,59.32
2022-12-22T11:05:23.861Z,55.12
2022-12-22T11:06:23.849Z,62.16
2022-12-22T11:07:23.869Z,61.70
2022-12-22T11:08:23.837Z,60.74
2022-12-22T11:09:33.891Z,64.24
2022-12-22T11:10:25.843Z,60.78
2022-12-22T11:11:23.810Z,61.54
2022-12-22T11:12:23.833Z,63.38
2022-12-22T11:13:23.792Z,63.86
2022-12-22T11:14:23.781Z,62.31
2022-12-22T11:15:25.152Z,60.27
2022-12-22T11:16:23.829Z,61.64
2022-12-22T11:17:23.807Z,60.00
2022-12-22T11:18:23.752Z,57.01
2022-12-22T11:19:23.747Z,62.75
2022-12-22T11:20:23.739Z,62.78
2022-12-22T11:21:24.477Z,59.39
2022-12-22T11:22:24.748Z,63.70
2022-12-22T11:23:23.706Z,58.42
2022-12-22T11:24:23.701Z,59.02
2022-12-22T11:25:23.698Z,63.86
2022-12-22T11:26:23.682Z,56.31
2022-12-22T11:27:23.703Z,59.22
2022-12-22T11:28:23.669Z,60.91
2022-12-22T11:29:23.686Z,60.16
2022-12-22T11:30:23.656Z,59.92
2022-12-22T11:31:23.714Z,59.91
2022-12-22T11:32:23.661Z,62.56
2022-12-22T11:33:23.628Z,61.15
2022-12-22T11:34:23.617Z,63.45
2022-12-22T11:35:23.613Z,59.00
2022-12-22T11:36:23.599Z,58.20
2022-12-22T11:37:23.644Z,61.85
2022-12-22T11:38:23.603Z,61.88
2022-12-22T11:39:23.576Z,61.40
2022-12-22T11:40:23.569Z,59.20
2022-12-22T11:41:23.562Z,59.32
2022-12-22T11:42:23.557Z,62.65
2022-12-22T11:43:23.578Z,60.00
2022-12-22T11:44:23.543Z,61.62
2022-12-22T11:45:23.545Z,63.86
2022-12-22T11:46:23.590Z,59.23
2022-12-22T11:47:23.517Z,62.12
2022-12-22T11:48:23.548Z,59.70
2022-12-22T11:49:23.504Z,61.36
2022-12-22T11:51:00.383Z,62.18
2022-12-22T11:51:27.588Z,60.87
2022-12-22T11:52:24.479Z,59.96
2022-12-22T11:53:23.500Z,58.77
2022-12-22T11:54:23.475Z,62.11
2022-12-22T11:55:23.457Z,61.37
2022-12-22T11:56:23.457Z,62.24
2022-12-22T11:57:23.437Z,61.93
2022-12-22T11:58:23.456Z,59.33
2022-12-22T11:59:23.422Z,62.03
2022-12-22T12:00:32.721Z,60.73
2022-12-22T12:01:26.387Z,58.27
2022-12-22T12:02:24.632Z,59.20
2022-12-22T12:03:23.539Z,62.48
2022-12-22T12:04:23.433Z,61.41
2022-12-22T12:05:23.371Z,63.66
2022-12-22T12:06:23.372Z,63.83
2022-12-22T12:07:25.888Z,57.31
2022-12-22T12:08:24.379Z,60.73
2022-12-22T12:09:23.346Z,62.48
2022-12-22T12:10:23.353Z,61.85
2022-12-22T12:11:23.333Z,60.90
2022-12-22T12:12:23.318Z,65.60
2022-12-22T12:13:28.580Z,62.56
2022-12-22T12:14:25.315Z,61.55
2022-12-22T12:15:23.307Z,62.90
2022-12-22T12:16:23.341Z,63.56
2022-12-22T12:17:23.334Z,63.32
2022-12-22T12:18:23.289Z,62.31
2022-12-22T12:19:26.871Z,59.88
2022-12-22T12:20:25.249Z,65.25
2022-12-22T12:21:23.266Z,63.34
2022-12-22T12:22:23.238Z,62.68
2022-12-22T12:23:23.265Z,59.93
2022-12-22T12:24:23.228Z,63.15
2022-12-22T12:25:25.981Z,62.63
2022-12-22T12:26:24.212Z,63.59
2022-12-22T12:27:23.197Z,61.03
2022-12-22T12:28:23.214Z,63.07
2022-12-22T12:29:23.179Z,63.69
2022-12-22T12:30:39.458Z,63.95
2022-12-22T12:31:26.778Z,63.37
2022-12-22T12:32:24.160Z,61.17
2022-12-22T12:33:23.173Z,60.57
2022-12-22T12:34:23.156Z,61.95
2022-12-22T12:35:23.135Z,62.09
2022-12-22T12:36:23.124Z,62.65
2022-12-22T12:37:26.490Z,60.74
2022-12-22T12:39:05.121Z,61.27
2022-12-22T12:39:25.104Z,61.55
2022-12-22T12:40:23.095Z,61.63
2022-12-22T12:41:23.084Z,64.30
2022-12-22T12:42:23.097Z,61.50
2022-12-22T12:43:23.101Z,62.26
2022-12-22T12:44:23.072Z,62.94
2022-12-22T12:45:23.059Z,62.74
2022-12-22T12:46:23.091Z,64.39
2022-12-22T12:47:23.056Z,61.40
2022-12-22T12:48:23.066Z,61.51
2022-12-22T12:49:26.413Z,61.38
2022-12-22T12:50:24.009Z,58.73
2022-12-22T12:51:23.011Z,61.16
2022-12-22T12:52:23.000Z,64.86